Time;durP1;ratioP1;P1;durP2;ratioP2;P2;SDS_P1;SDS_P2;PMS_P1;PMS_P2;Temp;Humidity;BMP_temperature;BMP_pressure;BME280_temperature;BME280_humidity;BME280_pressure;Samples;Min_cycle;Max_cycle;Signal;HPM_P1;HPM_P2
2023/08/28 00:03:44;;;;;;;3.57;2.93;;;;;;;18.71;53.11;99391.22;10450918;28;20600;-39
2023/08/28 00:08:46;;;;;;;3.03;2.73;;;;;;;19.70;50.90;99335.28;10452032;28;20329;-42
2023/08/28 00:13:47;;;;;;;2.73;2.53;;;;;;;19.34;51.48;99389.94;10459155;28;20237;-39
2023/08/28 00:18:49;;;;;;;4.77;2.47;;;;;;;19.08;52.16;99406.94;10457308;28;20517;-40
2023/08/28 00:23:51;;;;;;;2.90;2.60;;;;;;;19.49;50.50;99377.66;10459635;28;20245;-39
2023/08/28 00:28:52;;;;;;;3.13;2.77;;;;;;;18.89;52.60;99401.78;10461510;28;20360;-39
2023/08/28 00:33:54;;;;;;;3.73;2.73;;;;;;;19.22;51.78;99391.97;10458305;28;20277;-39
2023/08/28 00:38:57;;;;;;;4.23;2.57;;;;;;;19.05;51.37;99413.72;10453977;28;20236;-39
2023/08/28 00:43:58;;;;;;;9.73;2.67;;;;;;;18.69;52.34;99442.94;10456774;28;20304;-39
2023/08/28 00:49:00;;;;;;;3.50;2.83;;;;;;;19.10;51.61;99385.84;10444265;28;20239;-39
2023/08/28 00:54:03;;;;;;;3.60;2.37;;;;;;;19.48;50.93;99354.28;10456732;28;20232;-39
2023/08/28 00:59:05;;;;;;;3.10;2.60;;;;;;;18.90;51.66;99440.56;10461936;28;20260;-39
2023/08/28 01:04:07;;;;;;;5.77;2.70;;;;;;;18.26;52.35;99476.88;10458062;28;20251;-39
2023/08/28 01:09:31;;;;;;;4.40;3.17;;;;;;;16.50;56.50;99454.38;10460176;28;20224;-39
2023/08/28 01:14:43;;;;;;;3.23;2.93;;;;;;;18.60;52.91;99344.19;10457300;28;20260;-39
2023/08/28 01:19:44;;;;;;;3.43;3.13;;;;;;;18.18;53.05;99417.69;10440005;28;20231;-39
2023/08/28 01:24:51;;;;;;;3.93;3.13;;;;;;;18.73;51.85;99348.44;10451512;28;20754;-40
2023/08/28 01:30:13;;;;;;;5.67;3.03;;;;;;;18.21;52.83;99425.34;10454550;28;20215;-39
2023/08/28 01:35:20;;;;;;;3.90;3.20;;;;;;;16.78;56.69;99421.28;10452615;28;20280;-39
2023/08/28 01:40:27;;;;;;;5.17;3.00;;;;;;;16.34;57.00;99451.28;10454214;28;20261;-39
2023/08/28 01:45:29;;;;;;;3.50;3.20;;;;;;;15.82;57.29;99440.97;10453121;28;20231;-39
2023/08/28 01:50:31;;;;;;;5.10;3.40;;;;;;;16.28;55.38;99495.41;10457627;28;20229;-41
2023/08/28 01:55:45;;;;;;;3.20;2.80;;;;;;;17.97;52.82;99371.31;10453151;28;20230;-40
2023/08/28 02:00:47;;;;;;;3.00;2.80;;;;;;;16.79;54.43;99442.66;10450587;28;20239;-40
2023/08/28 02:05:48;;;;;;;3.33;2.80;;;;;;;15.54;56.96;99459.53;10456574;28;20244;-39
2023/08/28 02:10:52;;;;;;;3.67;2.90;;;;;;;16.58;55.74;99360.34;10451101;28;20231;-39
2023/08/28 02:15:54;;;;;;;3.50;3.20;;;;;;;17.32;53.63;99348.97;10443752;28;20583;-39
2023/08/28 02:20:56;;;;;;;3.47;2.67;;;;;;;17.88;51.80;99343.84;10452688;28;20210;-40
2023/08/28 02:25:57;;;;;;;3.43;3.00;;;;;;;16.64;53.63;99455.00;10454120;28;20242;-39
2023/08/28 02:30:59;;;;;;;4.83;3.03;;;;;;;17.55;52.99;99304.78;10447803;28;20211;-39
2023/08/28 02:36:02;;;;;;;3.20;2.93;;;;;;;15.79;55.43;99425.25;10454502;28;20239;-40
2023/08/28 02:41:06;;;;;;;2.87;2.30;;;;;;;16.64;52.20;99461.22;10454818;28;20208;-38
2023/08/28 02:46:08;;;;;;;3.83;2.80;;;;;;;15.10;56.96;99390.38;10455537;28;20254;-38
2023/08/28 02:51:09;;;;;;;5.87;3.20;;;;;;;15.55;56.29;99373.06;10453238;28;20772;-38
2023/08/28 02:56:17;;;;;;;3.87;3.27;;;;;;;14.09;59.11;99384.19;10451752;28;20241;-40
2023/08/28 03:01:19;;;;;;;3.97;3.23;;;;;;;14.82;57.61;99355.03;10448780;28;20231;-38
2023/08/28 03:06:21;;;;;;;6.00;3.20;;;;;;;13.72;59.30;99391.22;10445228;28;20243;-39
2023/08/28 03:11:23;;;;;;;4.17;3.40;;;;;;;14.65;57.25;99342.13;10446103;28;20249;-39
2023/08/28 03:16:24;;;;;;;3.97;3.17;;;;;;;14.00;58.12;99367.47;10453968;28;20271;-39
2023/08/28 03:21:26;;;;;;;2.93;2.60;;;;;;;14.82;56.40;99344.25;10447198;28;20805;-39
2023/08/28 03:26:29;;;;;;;2.83;2.63;;;;;;;14.18;56.33;99420.53;10449775;28;20728;-39
2023/08/28 03:31:31;;;;;;;2.87;2.30;;;;;;;15.46;54.22;99342.06;10445572;28;20259;-38
2023/08/28 03:36:33;;;;;;;6.03;2.63;;;;;;;16.93;51.05;99377.59;10452761;28;20318;-39
2023/08/28 03:41:34;;;;;;;3.03;2.73;;;;;;;15.37;53.77;99417.03;10449924;28;20746;-39
2023/08/28 03:46:36;;;;;;;2.27;2.10;;;;;;;16.22;52.60;99324.34;10458108;28;20238;-39
2023/08/28 03:51:38;;;;;;;3.93;2.33;;;;;;;17.82;49.02;99315.03;10452847;28;20306;-39
2023/08/28 03:56:39;;;;;;;2.43;2.00;;;;;;;15.62;52.19;99470.06;10461014;28;20253;-39
2023/08/28 04:01:41;;;;;;;4.53;2.17;;;;;;;16.16;51.81;99383.84;10454159;28;20524;-39
2023/08/28 04:06:43;;;;;;;3.30;2.33;;;;;;;17.88;48.79;99321.34;10454746;28;20381;-39
2023/08/28 04:11:45;;;;;;;5.03;2.73;;;;;;;16.65;50.73;99438.56;10455154;28;20614;-40
2023/08/28 04:16:47;;;;;;;2.50;2.30;;;;;;;17.64;49.38;99364.75;10450114;28;20286;-40
2023/08/28 04:21:49;;;;;;;2.50;2.20;;;;;;;17.44;49.72;99419.25;10458627;28;20237;-39
2023/08/28 04:26:50;;;;;;;2.80;1.87;;;;;;;17.86;49.04;99364.06;10446449;28;20236;-39
2023/08/28 04:31:52;;;;;;;2.10;2.00;;;;;;;15.71;52.89;99425.56;10455884;28;20230;-38
2023/08/28 04:36:54;;;;;;;4.17;1.80;;;;;;;17.56;49.24;99373.22;10462086;28;20246;-39
2023/08/28 04:41:56;;;;;;;2.40;2.20;;;;;;;17.95;47.94;99407.81;10462579;28;20227;-39
2023/08/28 04:46:59;;;;;;;2.57;1.87;;;;;;;16.21;51.54;99433.41;10464531;28;20223;-38
2023/08/28 04:52:02;;;;;;;1.73;1.63;;;;;;;18.39;48.21;99288.88;10457775;28;20558;-39
2023/08/28 04:57:04;;;;;;;3.00;1.97;;;;;;;18.40;47.45;99350.94;10459740;28;20235;-39
2023/08/28 05:02:06;;;;;;;3.83;1.97;;;;;;;18.57;47.82;99333.84;10458767;28;20251;-39
2023/08/28 05:07:08;;;;;;;2.80;2.27;;;;;;;18.47;47.68;99353.47;10461985;28;20636;-40
2023/08/28 05:12:10;;;;;;;4.13;2.23;;;;;;;16.78;50.71;99426.69;10445598;28;20220;-38
2023/08/28 05:17:11;;;;;;;2.20;2.10;;;;;;;18.40;47.85;99326.53;10457380;28;20218;-39
2023/08/28 05:22:13;;;;;;;2.87;2.03;;;;;;;15.96;51.49;99451.59;10456307;28;20208;-38
2023/08/28 05:27:15;;;;;;;2.57;2.10;;;;;;;15.14;53.77;99405.03;10458365;28;20231;-39
2023/08/28 05:32:16;;;;;;;1.93;1.83;;;;;;;16.24;51.47;99399.69;10460268;28;20209;-39
2023/08/28 05:37:18;;;;;;;2.70;2.50;;;;;;;15.62;52.54;99418.81;10462037;28;20251;-39
2023/08/28 05:42:20;;;;;;;2.60;2.40;;;;;;;16.44;51.37;99364.31;10460889;28;20227;-38
2023/08/28 05:47:22;;;;;;;3.17;2.27;;;;;;;15.90;52.01;99425.53;10458343;28;20247;-38
2023/08/28 05:52:23;;;;;;;3.20;2.20;;;;;;;14.54;55.78;99375.97;10456796;28;20601;-39
2023/08/28 05:57:25;;;;;;;4.57;2.33;;;;;;;14.94;55.24;99331.69;10460537;28;20304;-39
2023/08/28 06:02:27;;;;;;;2.77;2.37;;;;;;;15.60;54.18;99315.75;10461203;28;20293;-39
2023/08/28 06:07:29;;;;;;;3.87;2.20;;;;;;;16.02;53.03;99310.34;10459319;28;20240;-39
2023/08/28 06:12:31;;;;;;;2.23;1.97;;;;;;;15.14;53.84;99399.66;10456703;28;20226;-39
2023/08/28 06:17:33;;;;;;;3.40;2.57;;;;;;;15.39;53.08;99403.34;10456898;28;21305;-38
2023/08/28 06:22:35;;;;;;;2.37;2.17;;;;;;;15.00;54.42;99363.13;10458842;28;20669;-38
2023/08/28 06:27:38;;;;;;;2.30;2.00;;;;;;;15.00;53.67;99386.53;10457164;28;20714;-39
2023/08/28 06:32:39;;;;;;;2.37;2.10;;;;;;;14.21;55.74;99369.00;10456702;28;20470;-39
2023/08/28 06:37:41;;;;;;;2.80;2.60;;;;;;;14.77;55.07;99326.84;10454030;28;20715;-38
2023/08/28 06:42:43;;;;;;;2.80;2.27;;;;;;;14.37;56.18;99327.25;10454579;28;20262;-38
2023/08/28 06:47:45;;;;;;;2.73;2.53;;;;;;;14.02;55.80;99357.31;10453335;28;20318;-39
2023/08/28 06:52:47;;;;;;;3.20;2.90;;;;;;;14.38;55.25;99366.56;10458134;28;20209;-38
2023/08/28 06:57:49;;;;;;;2.50;2.30;;;;;;;14.10;56.17;99380.44;10455387;28;20235;-39
2023/08/28 07:02:51;;;;;;;2.80;2.30;;;;;;;14.53;55.77;99314.28;10455027;28;20255;-39
2023/08/28 07:07:52;;;;;;;2.50;2.30;;;;;;;14.51;54.92;99336.03;10456296;28;20346;-38
2023/08/28 07:12:54;;;;;;;3.50;2.80;;;;;;;14.46;55.65;99308.13;10441018;28;20314;-40
2023/08/28 07:17:56;;;;;;;2.77;2.27;;;;;;;13.08;58.12;99318.50;10449285;28;20314;-38
2023/08/28 07:22:58;;;;;;;2.63;2.30;;;;;;;14.01;57.06;99277.63;10463286;28;20308;-38
2023/08/28 07:28:00;;;;;;;2.20;2.03;;;;;;;15.11;54.16;99286.91;10464189;28;20236;-38
2023/08/28 07:33:02;;;;;;;2.93;2.00;;;;;;;14.71;54.69;99375.41;10461174;28;20312;-38
2023/08/28 07:38:06;;;;;;;2.17;2.07;;;;;;;14.86;54.94;99310.44;10458905;28;20701;-39
2023/08/28 07:43:08;;;;;;;2.23;2.10;;;;;;;15.14;53.66;99359.22;10462412;28;20316;-39
2023/08/28 07:48:09;;;;;;;2.67;2.47;;;;;;;15.56;52.90;99363.94;10460397;28;20708;-39
2023/08/28 07:53:12;;;;;;;2.60;1.90;;;;;;;16.18;52.43;99314.25;10455231;28;20238;-39
2023/08/28 07:58:14;;;;;;;3.60;2.20;;;;;;;15.88;53.83;99253.09;10456781;28;20322;-39
2023/08/28 08:03:15;;;;;;;4.57;2.33;;;;;;;16.09;51.82;99427.13;10462044;28;20486;-39
2023/08/28 08:08:17;;;;;;;3.47;2.23;;;;;;;16.77;51.22;99414.25;10453429;28;20231;-38
2023/08/28 08:13:19;;;;;;;2.87;1.93;;;;;;;16.38;50.98;99446.25;10445887;28;20246;-39
2023/08/28 08:18:20;;;;;;;2.57;2.20;;;;;;;17.26;50.13;99340.97;10460579;28;20262;-38
2023/08/28 08:23:23;;;;;;;3.90;2.40;;;;;;;18.40;48.40;99307.59;10460025;28;20607;-40
2023/08/28 08:28:24;;;;;;;2.93;2.27;;;;;;;18.51;48.64;99253.56;10461572;28;20231;-39
2023/08/28 08:33:26;;;;;;;2.50;2.20;;;;;;;17.20;50.44;99404.97;10454432;28;20675;-39
2023/08/28 08:38:28;;;;;;;2.23;2.03;;;;;;;18.07;48.70;99384.22;10456988;28;20254;-39
2023/08/28 08:43:30;;;;;;;3.60;2.60;;;;;;;18.87;47.83;99324.50;10462338;28;20935;-37
2023/08/28 08:48:34;;;;;;;2.70;2.40;;;;;;;19.04;47.70;99290.03;10456363;28;20654;-39
2023/08/28 08:53:42;;;;;;;2.90;2.10;;;;;;;17.70;50.07;99349.47;10455927;28;20232;-39
2023/08/28 08:58:46;;;;;;;4.13;2.40;;;;;;;18.90;47.90;99321.31;10461112;28;20322;-39
2023/08/28 09:03:49;;;;;;;4.40;2.40;;;;;;;20.01;46.21;99298.38;10461088;28;20229;-39
2023/08/28 09:08:51;;;;;;;4.03;2.27;;;;;;;18.37;48.76;99374.97;10456714;28;20236;-40
2023/08/28 09:13:52;;;;;;;2.20;2.00;;;;;;;17.50;50.07;99431.00;10444529;28;20235;-39
2023/08/28 09:18:54;;;;;;;2.97;2.37;;;;;;;18.07;49.13;99414.81;10456809;28;20271;-38
2023/08/28 09:23:58;;;;;;;2.83;2.40;;;;;;;16.71;51.90;99431.41;10453118;28;20262;-39
2023/08/28 09:29:04;;;;;;;2.63;2.20;;;;;;;16.80;51.29;99460.53;10459789;28;20249;-39
2023/08/28 09:34:06;;;;;;;3.73;2.40;;;;;;;18.07;49.07;99365.28;10453614;28;20232;-39
2023/08/28 09:39:12;;;;;;;3.67;2.10;;;;;;;17.00;49.83;99502.63;10461987;28;20235;-38
2023/08/28 09:44:18;;;;;;;2.77;2.47;;;;;;;16.60;51.60;99431.16;10440598;28;20253;-39
2023/08/28 09:49:20;;;;;;;2.47;2.20;;;;;;;17.81;49.30;99383.75;10456419;28;20243;-38
2023/08/28 09:54:22;;;;;;;2.53;2.33;;;;;;;17.62;50.71;99325.47;10455893;28;20254;-39
2023/08/28 09:59:27;;;;;;;3.50;2.30;;;;;;;17.83;49.76;99395.16;10454653;28;20781;-37
2023/08/28 10:04:30;;;;;;;3.60;2.40;;;;;;;17.73;49.80;99355.19;10435050;28;20321;-38
2023/08/28 10:09:34;;;;;;;3.60;2.70;;;;;;;18.26;49.63;99287.31;10450324;28;20249;-40
2023/08/28 10:14:37;;;;;;;2.47;2.20;;;;;;;18.03;49.82;99297.22;10452105;28;20304;-38
2023/08/28 10:20:00;;;;;;;3.20;2.20;;;;;;;18.32;48.99;99294.50;10454217;28;20831;-39
2023/08/28 10:25:03;;;;;;;4.27;2.63;;;;;;;15.95;52.10;99431.06;10451369;28;20235;-39
2023/08/28 10:30:06;;;;;;;3.13;2.50;;;;;;;16.53;51.59;99370.19;10448605;28;20258;-39
2023/08/28 10:35:09;;;;;;;4.90;2.10;;;;;;;17.55;50.08;99272.31;10454654;28;20620;-39
2023/08/28 10:40:12;;;;;;;2.37;1.90;;;;;;;16.83;50.46;99404.38;10455157;28;20281;-39
2023/08/28 10:45:14;;;;;;;2.73;2.40;;;;;;;17.04;49.65;99387.59;10454111;28;20235;-39
2023/08/28 10:50:16;;;;;;;2.37;1.93;;;;;;;18.08;48.47;99289.22;10452673;28;20615;-39
2023/08/28 10:55:19;;;;;;;3.03;2.43;;;;;;;17.80;47.69;99381.28;10448761;28;20500;-38
2023/08/28 11:06:42;;;;;;;2.60;2.40;;;;;;;15.72;52.23;99224.91;10482158;28;20372;-76
2023/08/28 11:11:44;;;;;;;2.73;2.40;;;;;;;14.21;54.93;99328.63;10390656;28;20235;-76
2023/08/28 11:16:45;;;;;;;2.87;2.57;;;;;;;15.95;52.78;99250.28;10417274;28;20285;-76
2023/08/28 11:21:47;;;;;;;5.80;2.50;;;;;;;15.57;52.99;99230.75;10398735;23;20280;-38
2023/08/28 11:26:49;;;;;;;4.20;2.50;;;;;;;15.95;52.69;99288.06;10292230;28;20234;-38
2023/08/28 11:31:51;;;;;;;4.53;2.67;;;;;;;14.71;54.01;99338.53;10303254;28;20239;-38
2023/08/28 11:36:53;;;;;;;4.57;3.17;;;;;;;15.99;52.45;99262.25;10305219;28;20245;-39
2023/08/28 11:41:55;;;;;;;2.70;2.50;;;;;;;15.96;53.04;99227.63;10291713;28;20242;-40
2023/08/28 11:46:56;;;;;;;3.27;2.60;;;;;;;16.11;52.34;99236.09;10293081;28;20866;-38
2023/08/28 11:51:58;;;;;;;2.37;2.13;;;;;;;16.47;52.34;99185.63;10292656;28;20202;-38
2023/08/28 11:57:00;;;;;;;2.63;2.43;;;;;;;17.74;49.77;99220.72;10290542;28;20426;-39
2023/08/28 12:02:05;;;;;;;3.67;2.20;;;;;;;16.97;50.13;99243.66;10292153;28;20521;-38
2023/08/28 12:07:27;;;;;;;3.87;2.90;;;;;;;16.32;50.84;99285.19;10292196;28;20229;-38
2023/08/28 12:12:29;;;;;;;3.37;2.43;;;;;;;16.45;50.38;99271.47;10291557;28;20767;-38
2023/08/28 12:17:31;;;;;;;3.23;2.90;;;;;;;15.57;51.43;99325.16;10265344;28;20801;-39
2023/08/28 12:22:42;;;;;;;2.90;2.57;;;;;;;17.59;49.32;99158.22;10263859;28;20257;-39
2023/08/28 12:27:44;;;;;;;3.43;2.53;;;;;;;16.18;49.74;99319.63;10262235;28;20502;-39
2023/08/28 12:32:52;;;;;;;2.87;2.67;;;;;;;15.78;51.07;99339.16;10266951;28;20213;-40
2023/08/28 12:37:54;;;;;;;3.77;3.00;;;;;;;16.15;49.89;99293.94;10267748;28;24266;-39
2023/08/28 12:42:59;;;;;;;5.90;2.60;;;;;;;17.33;49.32;99203.78;10266882;28;20234;-39
2023/08/28 12:48:02;;;;;;;3.33;2.50;;;;;;;16.17;49.35;99353.09;10262966;28;20257;-39
2023/08/28 12:53:04;;;;;;;2.60;2.40;;;;;;;16.85;49.49;99246.34;10263910;28;20214;-39
2023/08/28 12:58:07;;;;;;;3.13;2.70;;;;;;;15.96;50.09;99395.75;10263301;28;20683;-39
2023/08/28 13:03:09;;;;;;;2.90;2.60;;;;;;;17.66;48.79;99192.22;10265065;28;20226;-39
2023/08/28 13:08:11;;;;;;;4.40;3.53;;;;;;;17.71;47.60;99322.16;10263786;28;20346;-39
2023/08/28 13:13:13;;;;;;;3.07;2.77;;;;;;;18.10;47.74;99253.75;10265806;28;20306;-39
2023/08/28 13:18:15;;;;;;;4.67;2.50;;;;;;;17.50;47.56;99372.31;10265624;28;20214;-40
2023/08/28 13:23:17;;;;;;;3.00;2.80;;;;;;;18.18;47.83;99287.72;10255680;28;20240;-39
2023/08/28 13:28:20;;;;;;;3.47;2.35;;;;;;;17.65;47.26;99247.38;10258224;28;20333;-39
2023/08/28 13:33:25;;;;;;;2.78;2.58;;;;;;;16.80;47.86;99398.41;10259314;28;20321;-39
2023/08/28 13:38:27;;;;;;;2.60;2.40;;;;;;;17.75;48.24;99343.28;10252896;28;20321;-40
2023/08/28 13:43:29;;;;;;;3.50;2.15;;;;;;;16.81;48.41;99362.19;10257983;28;20715;-40
2023/08/28 13:48:31;;;;;;;3.57;2.37;;;;;;;17.29;47.78;99338.66;10254682;28;20317;-38
2023/08/28 13:53:32;;;;;;;2.70;2.00;;;;;;;17.37;47.98;99372.59;10258359;28;20248;-39
2023/08/28 13:58:34;;;;;;;3.20;2.90;;;;;;;18.31;46.23;99336.16;10253826;28;20713;-39
2023/08/28 14:03:36;;;;;;;3.50;2.63;;;;;;;18.16;46.48;99333.19;10251020;28;20239;-39
2023/08/28 14:08:38;;;;;;;2.43;2.23;;;;;;;18.57;46.47;99249.84;10259496;28;20227;-39
2023/08/28 14:13:39;;;;;;;2.83;1.83;;;;;;;17.64;46.80;99355.81;10263617;28;20235;-39
2023/08/28 14:18:41;;;;;;;2.10;1.70;;;;;;;17.62;46.50;99352.53;10258935;28;20263;-40
2023/08/28 14:23:43;;;;;;;1.90;1.80;;;;;;;17.34;47.76;99305.47;10262786;28;20245;-39
2023/08/28 14:28:44;;;;;;;3.78;1.70;;;;;;;17.49;47.33;99359.03;10256166;28;20241;-39
2023/08/28 14:33:46;;;;;;;3.00;1.87;;;;;;;17.04;48.00;99316.47;10258670;28;20232;-39
2023/08/28 14:38:48;;;;;;;3.33;1.90;;;;;;;16.65;48.18;99325.13;10249708;28;20279;-40
2023/08/28 14:43:50;;;;;;;1.73;1.63;;;;;;;16.90;47.40;99295.09;10258904;28;20238;-39
2023/08/28 14:48:51;;;;;;;2.07;1.90;;;;;;;17.17;46.51;99333.28;10253214;28;20367;-39
2023/08/28 14:53:55;;;;;;;2.00;1.83;;;;;;;16.65;46.45;99397.19;10252703;28;20234;-39
2023/08/28 14:58:57;;;;;;;2.30;1.80;;;;;;;16.04;47.00;99373.84;10257572;28;20245;-39
2023/08/28 15:05:20;;;;;;;1.60;1.50;;;;;;;15.94;49.00;99157.72;10354560;23;21464;-75
2023/08/28 15:10:22;;;;;;;2.67;1.73;;;;;;;15.95;48.63;99150.47;10366125;28;20337;-78
2023/08/28 15:15:24;;;;;;;2.07;1.87;;;;;;;16.49;47.94;99161.91;10366948;28;20726;-75
2023/08/28 15:20:26;;;;;;;1.93;1.70;;;;;;;16.49;48.31;99213.22;10364702;28;20257;-75
2023/08/28 15:25:30;;;;;;;1.80;1.70;;;;;;;15.58;49.55;99325.97;10300835;28;20284;-76
2023/08/28 15:30:33;;;;;;;1.97;1.80;;;;;;;17.66;46.04;99150.78;10322375;28;20336;-73
2023/08/28 15:35:35;;;;;;;1.87;1.77;;;;;;;16.14;47.75;99276.09;10329796;28;20260;-78
2023/08/28 15:40:37;;;;;;;1.50;1.40;;;;;;;17.07;46.55;99221.41;10321219;28;20376;-76
2023/08/28 15:45:57;;;;;;;1.30;1.30;;;;;;;16.42;47.64;99280.03;10328194;28;20237;-75
2023/08/28 15:51:03;;;;;;;1.23;1.23;;;;;;;16.16;47.30;99341.50;10325033;28;20316;-75
2023/08/28 15:56:04;;;;;;;1.70;1.20;;;;;;;16.94;46.65;99274.66;10322446;28;20317;-74
2023/08/28 16:01:06;;;;;;;1.50;1.40;;;;;;;16.00;46.80;99363.75;10326407;28;20235;-75
2023/08/28 16:06:10;;;;;;;1.47;1.40;;;;;;;16.07;46.25;99340.97;10319481;28;20234;-73
2023/08/28 16:11:12;;;;;;;1.53;1.47;;;;;;;15.94;46.45;99370.88;10312751;28;20229;-76
2023/08/28 16:16:13;;;;;;;1.60;1.50;;;;;;;17.23;45.80;99219.81;10300629;28;20252;-76
2023/08/28 16:21:15;;;;;;;1.45;1.35;;;;;;;17.32;45.04;99254.31;10293603;28;20238;-77
2023/08/28 16:26:17;;;;;;;1.30;1.27;;;;;;;17.29;45.31;99254.00;10308776;28;20242;-78
2023/08/28 16:31:19;;;;;;;1.80;1.70;;;;;;;15.91;47.10;99363.25;10290437;28;20302;-73
2023/08/28 16:36:22;;;;;;;1.87;1.50;;;;;;;17.87;44.56;99225.81;10299703;28;21054;-78
2023/08/28 16:41:24;;;;;;;1.20;1.20;;;;;;;17.40;45.04;99301.78;10331349;28;20248;-76
2023/08/28 16:46:26;;;;;;;1.90;1.50;;;;;;;16.95;45.99;99297.94;10290442;28;20230;-79
2023/08/28 16:51:27;;;;;;;1.20;1.20;;;;;;;17.86;45.04;99217.94;10293578;28;20296;-79
2023/08/28 16:56:31;;;;;;;1.40;1.30;;;;;;;17.16;46.29;99241.59;10294265;28;20713;-77
2023/08/28 17:01:33;;;;;;;1.50;1.40;;;;;;;16.47;48.24;99279.31;10292927;28;20246;-77
2023/08/28 17:06:35;;;;;;;1.80;1.70;;;;;;;16.51;48.68;99224.59;10296867;28;20842;-77
2023/08/28 17:11:44;;;;;;;1.80;1.50;;;;;;;17.69;46.36;99129.47;10305307;28;20373;-77
2023/08/28 17:16:45;;;;;;;2.20;1.67;;;;;;;17.11;46.74;99263.94;10296651;28;20318;-78
2023/08/28 17:21:47;;;;;;;1.57;1.47;;;;;;;16.97;47.46;99274.22;10294047;28;20240;-77
2023/08/28 17:26:49;;;;;;;1.63;1.40;;;;;;;17.72;45.94;99275.09;10294194;28;20685;-78
2023/08/28 17:31:51;;;;;;;1.83;1.63;;;;;;;17.74;47.09;99228.84;10293030;28;20232;-77
2023/08/28 17:36:52;;;;;;;1.80;1.70;;;;;;;18.48;45.51;99302.84;10292039;28;21039;-78
2023/08/28 17:41:54;;;;;;;2.83;1.93;;;;;;;18.49;46.33;99204.22;10297735;28;20333;-78
2023/08/28 17:46:56;;;;;;;1.80;1.40;;;;;;;18.13;46.18;99295.78;10297029;28;20226;-76
2023/08/28 17:51:57;;;;;;;2.07;1.40;;;;;;;18.25;46.84;99300.03;10299011;28;20462;-80
2023/08/28 17:56:59;;;;;;;2.70;1.40;;;;;;;18.57;45.98;99285.88;10305976;28;20232;-78
2023/08/28 18:02:01;;;;;;;1.70;1.60;;;;;;;17.35;47.62;99405.28;10299596;28;20229;-77
2023/08/28 18:07:02;;;;;;;1.87;1.77;;;;;;;18.30;47.11;99255.97;10307011;28;20347;-77
2023/08/28 18:12:04;;;;;;;1.93;1.70;;;;;;;18.14;46.62;99305.56;10331569;28;20782;-76
2023/08/28 18:17:06;;;;;;;1.70;1.60;;;;;;;18.10;46.65;99288.94;10322481;28;20321;-78
2023/08/28 18:22:08;;;;;;;1.57;1.47;;;;;;;18.20;46.73;99323.50;10295819;28;20353;-77
2023/08/28 18:27:10;;;;;;;2.15;1.85;;;;;;;17.84;47.68;99321.00;10303689;28;20225;-77
2023/08/28 18:32:12;;;;;;;2.07;1.90;;;;;;;16.42;50.00;99313.25;10320699;28;20225;-77
2023/08/28 18:37:15;;;;;;;2.23;2.10;;;;;;;16.47;49.95;99344.13;10292127;28;20240;-78
2023/08/28 18:42:16;;;;;;;2.07;1.87;;;;;;;16.80;49.94;99267.88;10305443;28;20221;-77
2023/08/28 18:47:18;;;;;;;2.33;2.13;;;;;;;15.60;51.90;99350.81;10308552;28;20279;-77
2023/08/28 18:52:20;;;;;;;2.83;2.50;;;;;;;16.75;49.41;99292.06;10289806;28;20230;-76
2023/08/28 18:57:21;;;;;;;2.03;1.90;;;;;;;16.34;49.78;99372.97;10289452;28;20626;-78
2023/08/28 19:02:23;;;;;;;2.67;2.40;;;;;;;16.21;50.75;99303.81;10292544;28;20268;-77
2023/08/28 19:07:26;;;;;;;2.77;2.57;;;;;;;16.64;50.24;99260.53;10289487;28;20262;-78
2023/08/28 19:12:28;;;;;;;2.17;2.07;;;;;;;15.97;50.90;99324.53;10289443;28;20276;-77
2023/08/28 19:17:30;;;;;;;3.07;2.57;;;;;;;16.36;50.89;99291.75;10292111;28;20315;-77
2023/08/28 19:22:31;;;;;;;2.50;2.30;;;;;;;16.54;49.99;99305.13;10290226;28;20708;-76
2023/08/28 19:27:33;;;;;;;2.67;2.47;;;;;;;17.00;48.78;99308.03;10283789;28;20624;-77
2023/08/28 19:32:42;;;;;;;2.23;2.07;;;;;;;17.11;48.92;99315.31;10288603;28;20392;-74
2023/08/28 19:37:48;;;;;;;2.43;2.23;;;;;;;17.09;49.22;99255.25;10300525;28;20652;-71
2023/08/28 19:42:50;;;;;;;2.50;2.30;;;;;;;17.39;48.65;99237.13;10327964;28;20249;-75
2023/08/28 19:47:53;;;;;;;2.13;1.93;;;;;;;18.50;46.57;99243.81;10325552;28;20313;-74
2023/08/28 19:52:55;;;;;;;2.63;2.43;;;;;;;17.53;47.21;99369.13;10337617;28;20245;-73
2023/08/28 19:57:56;;;;;;;3.43;2.23;;;;;;;17.88;47.51;99299.69;10335382;28;20234;-76
2023/08/28 20:02:58;;;;;;;2.00;1.90;;;;;;;18.74;45.94;99264.19;10336033;28;20668;-74
2023/08/28 20:08:00;;;;;;;1.98;1.83;;;;;;;18.22;47.39;99318.66;10331556;28;20233;-73
2023/08/28 20:13:03;;;;;;;2.60;2.40;;;;;;;18.07;47.48;99316.53;10327906;28;20229;-76
2023/08/28 20:18:07;;;;;;;2.40;2.03;;;;;;;16.43;50.38;99357.25;10333044;28;20234;-75
2023/08/28 20:23:10;;;;;;;2.30;2.10;;;;;;;16.69;49.67;99330.84;10335020;28;20379;-75
2023/08/28 20:28:12;;;;;;;2.47;1.97;;;;;;;16.03;51.50;99314.72;10334565;28;20975;-76
2023/08/28 20:33:14;;;;;;;3.30;2.10;;;;;;;15.00;53.48;99329.97;10334702;28;20704;-75
2023/08/28 20:38:16;;;;;;;2.10;2.00;;;;;;;15.80;52.06;99258.81;10332769;28;20229;-75
2023/08/28 20:43:17;;;;;;;2.30;2.00;;;;;;;16.11;51.75;99214.53;10335448;28;20248;-75
2023/08/28 20:48:19;;;;;;;2.30;2.10;;;;;;;15.57;51.99;99308.97;10329616;28;20255;-74
2023/08/28 20:53:22;;;;;;;3.03;2.53;;;;;;;15.34;52.86;99280.00;10336923;28;20317;-77
2023/08/28 20:58:24;;;;;;;2.47;2.27;;;;;;;15.27;53.43;99236.16;10336209;28;20224;-76
2023/08/28 21:03:26;;;;;;;2.60;2.20;;;;;;;15.62;53.18;99192.28;10350785;23;20248;-38
2023/08/28 21:08:28;;;;;;;3.70;2.13;;;;;;;15.90;51.88;99223.19;10398846;28;20232;-39
2023/08/28 21:13:29;;;;;;;2.40;2.20;;;;;;;15.75;51.78;99246.03;10424003;28;20697;-38
2023/08/28 21:18:31;;;;;;;2.00;1.90;;;;;;;16.29;50.01;99282.97;10411558;28;20224;-37
2023/08/28 21:23:33;;;;;;;2.03;1.93;;;;;;;17.16;49.28;99207.28;10417637;28;20852;-39
2023/08/28 21:28:36;;;;;;;2.10;2.00;;;;;;;17.01;48.63;99330.50;10407914;28;20260;-37
2023/08/28 21:33:38;;;;;;;2.47;2.10;;;;;;;17.74;47.79;99261.31;10418299;28;20229;-37
2023/08/28 21:38:40;;;;;;;2.23;2.00;;;;;;;17.44;48.62;99275.91;10413492;28;20319;-37
2023/08/28 21:43:42;;;;;;;2.17;1.80;;;;;;;18.19;47.28;99237.94;10415698;28;21237;-38
2023/08/28 21:48:44;;;;;;;2.73;1.87;;;;;;;17.30;49.09;99356.50;10409109;28;20605;-37
2023/08/28 21:53:45;;;;;;;4.13;2.10;;;;;;;16.90;48.94;99400.47;10412510;28;20236;-38
2023/08/28 21:58:47;;;;;;;2.47;2.27;;;;;;;16.96;49.43;99359.03;10406843;28;20231;-38
2023/08/28 22:03:49;;;;;;;3.80;2.27;;;;;;;16.91;49.26;99358.91;10415925;28;20234;-37
2023/08/28 22:08:52;;;;;;;1.90;1.80;;;;;;;15.98;51.07;99318.09;10409761;28;20232;-39
2023/08/28 22:13:55;;;;;;;2.30;2.10;;;;;;;15.30;52.42;99319.22;10409911;28;20286;-38
2023/08/28 22:18:57;;;;;;;2.83;2.30;;;;;;;15.38;52.38;99242.63;10409678;28;20630;-38
2023/08/28 22:23:59;;;;;;;2.60;2.33;;;;;;;15.40;52.01;99284.47;10411038;28;20742;-36
2023/08/28 22:29:02;;;;;;;2.77;2.57;;;;;;;14.71;53.67;99273.91;10409545;28;20230;-37
2023/08/28 22:34:03;;;;;;;3.00;2.80;;;;;;;14.81;53.73;99240.22;10415250;28;20311;-40
2023/08/28 22:39:05;;;;;;;4.33;2.80;;;;;;;14.46;54.52;99267.75;10411950;28;20719;-38
2023/08/28 22:44:07;;;;;;;2.90;2.70;;;;;;;14.75;54.18;99223.09;10416422;28;20273;-37
2023/08/28 22:49:09;;;;;;;2.57;2.37;;;;;;;14.88;53.26;99246.38;10410581;28;20292;-36
2023/08/28 22:54:10;;;;;;;2.63;2.43;;;;;;;14.43;54.34;99293.25;10420347;28;20297;-38
2023/08/28 22:59:12;;;;;;;2.77;2.57;;;;;;;15.73;51.92;99136.75;10407278;28;20236;-37
2023/08/28 23:04:14;;;;;;;2.67;2.47;;;;;;;14.15;55.31;99247.97;10407558;28;20275;-38
2023/08/28 23:09:16;;;;;;;3.87;2.70;;;;;;;14.19;54.58;99254.56;10409385;28;20705;-38
2023/08/28 23:14:18;;;;;;;2.83;2.63;;;;;;;14.96;53.52;99192.19;10409009;28;20219;-37
2023/08/28 23:19:19;;;;;;;2.87;2.57;;;;;;;16.50;50.79;99106.84;10405428;28;20244;-37
2023/08/28 23:24:21;;;;;;;3.60;2.57;;;;;;;15.75;51.83;99224.44;10420888;28;20733;-37
2023/08/28 23:29:24;;;;;;;3.77;2.40;;;;;;;15.42;52.61;99231.16;10411552;28;21109;-37
2023/08/28 23:34:26;;;;;;;2.90;2.70;;;;;;;15.26;52.76;99256.88;10419729;28;20248;-37